createdAt,value
2022-08-26T00:02:24.024Z,3.83
2022-08-26T00:04:53.203Z,3.90
2022-08-26T00:07:22.245Z,3.60
2022-08-26T00:09:54.352Z,3.85
2022-08-26T00:12:37.509Z,3.28
2022-08-26T00:15:10.190Z,3.75
2022-08-26T00:17:40.218Z,3.35
2022-08-26T00:20:11.511Z,3.53
2022-08-26T00:22:41.288Z,3.53
2022-08-26T00:25:13.180Z,3.45
2022-08-26T00:27:44.891Z,3.65
2022-08-26T00:30:24.263Z,3.60
2022-08-26T00:32:56.471Z,3.70
2022-08-26T00:35:27.966Z,3.55
2022-08-26T00:37:58.474Z,3.10
2022-08-26T00:40:36.004Z,3.60
2022-08-26T00:43:07.077Z,3.53
2022-08-26T00:45:52.093Z,3.47
2022-08-26T00:48:25.033Z,3.35
2022-08-26T00:50:59.302Z,2.95
2022-08-26T00:53:35.286Z,3.60
2022-08-26T00:56:39.241Z,3.42
2022-08-26T00:59:12.306Z,3.47
2022-08-26T01:01:43.919Z,3.38
2022-08-26T01:04:18.950Z,2.88
2022-08-26T01:06:50.433Z,2.80
2022-08-26T01:09:21.147Z,3.53
2022-08-26T01:11:53.968Z,3.45
2022-08-26T01:14:28.830Z,3.50
2022-08-26T01:16:58.188Z,2.92
2022-08-26T01:19:32.435Z,3.25
2022-08-26T01:22:29.860Z,3.25
2022-08-26T01:25:04.249Z,2.88
2022-08-26T01:27:36.183Z,2.58
2022-08-26T01:30:06.748Z,4.13
2022-08-26T01:32:40.206Z,3.30
2022-08-26T01:35:10.444Z,2.88
2022-08-26T01:37:40.945Z,3.35
2022-08-26T01:40:16.830Z,3.10
2022-08-26T01:42:47.709Z,3.00
2022-08-26T01:45:22.920Z,3.08
2022-08-26T01:47:57.155Z,2.93
2022-08-26T01:50:31.236Z,3.00
2022-08-26T01:53:06.842Z,2.95
2022-08-26T01:55:38.630Z,3.05
2022-08-26T01:58:14.714Z,2.80
2022-08-26T02:00:44.392Z,2.90
2022-08-26T02:03:19.841Z,2.75
2022-08-26T02:06:01.517Z,2.83
2022-08-26T02:08:38.065Z,3.25
2022-08-26T02:14:30.688Z,3.00
2022-08-26T02:17:00.343Z,2.90
2022-08-26T02:19:33.580Z,3.25
2022-08-26T02:22:08.564Z,3.10
2022-08-26T02:24:56.725Z,2.42
2022-08-26T02:27:32.253Z,3.13
2022-08-26T02:30:11.489Z,2.72
2022-08-26T02:32:41.856Z,2.70
2022-08-26T02:35:18.324Z,2.80
2022-08-26T02:37:51.288Z,2.88
2022-08-26T02:40:24.357Z,2.97
2022-08-26T02:42:56.975Z,3.05
2022-08-26T02:45:28.440Z,3.05
2022-08-26T02:47:59.619Z,2.88
2022-08-26T02:50:29.706Z,4.30
2022-08-26T02:52:58.784Z,3.00
2022-08-26T02:55:28.388Z,3.00
2022-08-26T02:57:57.488Z,3.15
2022-08-26T03:00:27.234Z,3.22
2022-08-26T03:02:56.701Z,3.10
2022-08-26T03:05:26.345Z,3.35
2022-08-26T03:07:55.667Z,3.60
2022-08-26T03:10:26.037Z,3.85
2022-08-26T03:12:55.317Z,3.00
2022-08-26T03:15:25.398Z,3.63
2022-08-26T03:17:55.783Z,3.38
2022-08-26T03:20:26.876Z,3.28
2022-08-26T03:22:57.772Z,3.13
2022-08-26T03:25:28.502Z,3.05
2022-08-26T03:27:57.588Z,3.45
2022-08-26T03:30:45.226Z,3.83
2022-08-26T03:33:15.820Z,3.65
2022-08-26T03:35:50.575Z,3.70
2022-08-26T03:38:28.187Z,3.83
2022-08-26T03:40:57.531Z,3.70
2022-08-26T03:43:27.654Z,3.67
2022-08-26T03:45:57.010Z,4.00
2022-08-26T03:48:26.348Z,3.88
2022-08-26T03:50:55.430Z,3.75
2022-08-26T03:53:24.759Z,3.65
2022-08-26T03:55:54.127Z,4.05
2022-08-26T03:58:25.279Z,4.25
2022-08-26T04:00:55.703Z,3.92
2022-08-26T04:03:44.989Z,3.28
2022-08-26T04:06:14.544Z,3.00
2022-08-26T04:08:48.979Z,3.95
2022-08-26T04:11:20.767Z,4.10
2022-08-26T04:13:51.003Z,3.75
2022-08-26T04:16:20.395Z,3.88
2022-08-26T04:18:49.987Z,3.63
2022-08-26T04:21:20.293Z,3.78
2022-08-26T04:23:50.460Z,3.78
2022-08-26T04:26:20.847Z,3.67
2022-08-26T04:28:51.492Z,3.83
2022-08-26T04:31:21.996Z,3.10
2022-08-26T04:33:51.601Z,3.05
2022-08-26T04:36:20.863Z,3.30
2022-08-26T04:38:51.574Z,2.70
2022-08-26T04:41:20.903Z,2.13
2022-08-26T04:43:51.246Z,2.28
2022-08-26T04:46:24.058Z,1.70
2022-08-26T04:48:55.132Z,1.75
2022-08-26T04:51:28.408Z,1.60
2022-08-26T04:53:59.040Z,1.20
2022-08-26T04:56:33.679Z,1.58
2022-08-26T04:59:04.078Z,1.35
2022-08-26T05:01:39.701Z,1.30
2022-08-26T05:04:09.168Z,1.30
2022-08-26T05:06:39.228Z,1.40
2022-08-26T05:09:09.322Z,1.52
2022-08-26T05:11:39.374Z,1.48
2022-08-26T05:14:09.192Z,1.30
2022-08-26T05:16:40.887Z,1.52
2022-08-26T05:19:10.324Z,1.30
2022-08-26T05:21:39.616Z,1.42
2022-08-26T05:24:08.892Z,1.30
2022-08-26T05:26:38.546Z,1.38
2022-08-26T05:29:07.564Z,1.75
2022-08-26T05:31:37.410Z,1.55
2022-08-26T05:34:07.007Z,1.67
2022-08-26T05:36:38.030Z,1.52
2022-08-26T05:39:10.693Z,1.55
2022-08-26T05:41:43.141Z,1.90
2022-08-26T05:44:17.041Z,1.60
2022-08-26T05:46:46.963Z,1.50
2022-08-26T05:49:17.195Z,1.55
2022-08-26T05:51:47.933Z,1.30
2022-08-26T05:54:21.700Z,1.42
2022-08-26T05:56:54.355Z,1.35
2022-08-26T05:59:24.565Z,1.40
2022-08-26T06:01:55.629Z,1.20
2022-08-26T06:04:29.730Z,1.20
2022-08-26T06:06:59.941Z,1.20
2022-08-26T06:09:29.539Z,1.30
2022-08-26T06:11:59.686Z,1.40
2022-08-26T06:14:28.833Z,1.30
2022-08-26T06:16:58.651Z,1.25
2022-08-26T06:19:34.335Z,1.30
2022-08-26T06:22:23.793Z,1.58
2022-08-26T06:25:11.395Z,1.42
2022-08-26T06:27:40.886Z,1.42
2022-08-26T06:30:11.246Z,1.98
2022-08-26T06:32:41.968Z,1.55
2022-08-26T06:35:11.878Z,1.50
2022-08-26T06:37:42.002Z,1.45
2022-08-26T06:40:11.972Z,1.60
2022-08-26T06:42:42.059Z,1.38
2022-08-26T06:45:12.724Z,1.50
2022-08-26T06:47:47.446Z,1.83
2022-08-26T06:50:18.658Z,1.48
2022-08-26T06:52:47.758Z,1.40
2022-08-26T06:55:18.367Z,1.58
2022-08-26T06:57:47.544Z,1.50
2022-08-26T07:00:17.237Z,1.77
2022-08-26T07:02:49.945Z,1.80
2022-08-26T07:05:19.801Z,1.50
2022-08-26T07:07:49.387Z,1.83
2022-08-26T07:10:18.477Z,1.70
2022-08-26T07:12:47.502Z,2.00
2022-08-26T07:15:17.290Z,1.80
2022-08-26T07:17:46.454Z,2.00
2022-08-26T07:20:15.554Z,1.80
2022-08-26T07:22:44.881Z,1.92
2022-08-26T07:25:13.974Z,2.30
2022-08-26T07:27:43.077Z,1.63
2022-08-26T07:30:14.925Z,1.20
2022-08-26T07:32:44.631Z,1.38
2022-08-26T07:35:16.570Z,1.70
2022-08-26T07:37:45.806Z,1.80
2022-08-26T07:40:17.515Z,1.45
2022-08-26T07:42:47.879Z,1.58
2022-08-26T07:45:18.426Z,1.52
2022-08-26T07:47:48.656Z,2.00
2022-08-26T07:50:17.743Z,1.73
2022-08-26T07:52:46.871Z,2.00
2022-08-26T07:55:16.616Z,1.88
2022-08-26T07:57:45.763Z,1.75
2022-08-26T08:00:17.309Z,1.77
2022-08-26T08:02:46.632Z,1.63
2022-08-26T08:05:19.177Z,1.95
2022-08-26T08:07:48.959Z,1.60
2022-08-26T08:10:25.343Z,1.85
2022-08-26T08:12:57.144Z,1.63
2022-08-26T08:15:29.664Z,2.08
2022-08-26T08:18:00.794Z,1.80
2022-08-26T08:20:30.972Z,2.00
2022-08-26T08:23:01.753Z,1.70
2022-08-26T08:25:31.634Z,1.73
2022-08-26T08:28:01.396Z,2.00
2022-08-26T08:30:31.097Z,2.35
2022-08-26T08:33:05.295Z,1.90
2022-08-26T08:35:35.522Z,1.90
2022-08-26T08:38:05.010Z,2.08
2022-08-26T08:40:40.560Z,2.30
2022-08-26T08:43:37.497Z,2.08
2022-08-26T08:46:16.254Z,2.05
2022-08-26T08:49:00.729Z,2.58
2022-08-26T08:51:36.013Z,2.38
2022-08-26T08:54:06.756Z,2.20
2022-08-26T08:56:45.867Z,2.25
2022-08-26T08:59:21.111Z,2.33
2022-08-26T09:01:54.094Z,2.72
2022-08-26T09:04:29.268Z,2.30
2022-08-26T09:07:01.709Z,2.00
2022-08-26T09:09:58.225Z,2.20
2022-08-26T09:12:32.027Z,2.13
2022-08-26T09:15:20.003Z,2.45
2022-08-26T09:18:11.106Z,2.40
2022-08-26T09:20:56.379Z,2.38
2022-08-26T09:23:27.183Z,2.58
2022-08-26T09:25:59.278Z,2.47
2022-08-26T09:28:30.859Z,2.55
2022-08-26T09:31:10.695Z,2.33
2022-08-26T09:33:41.494Z,2.70
2022-08-26T09:36:16.802Z,2.40
2022-08-26T09:38:46.963Z,2.67
2022-08-26T09:41:34.115Z,2.55
2022-08-26T09:44:17.725Z,2.65
2022-08-26T09:47:00.714Z,2.67
2022-08-26T09:49:36.064Z,2.10
2022-08-26T09:52:28.718Z,2.78
2022-08-26T09:55:17.099Z,2.88
2022-08-26T09:57:52.239Z,2.55
2022-08-26T10:00:30.548Z,2.60
2022-08-26T10:03:03.582Z,3.00
2022-08-26T10:05:42.118Z,2.72
2022-08-26T10:08:38.366Z,2.80
2022-08-26T10:11:18.972Z,3.25
2022-08-26T10:13:56.216Z,3.47
2022-08-26T10:16:36.137Z,3.53
2022-08-26T10:19:16.771Z,3.88
2022-08-26T10:22:07.686Z,3.22
2022-08-26T10:24:44.166Z,3.30
2022-08-26T10:27:34.985Z,3.35
2022-08-26T10:30:11.282Z,3.40
2022-08-26T10:32:47.246Z,3.55
2022-08-26T10:35:20.156Z,3.72
2022-08-26T10:37:57.479Z,3.63
2022-08-26T10:40:50.922Z,3.50
2022-08-26T10:43:25.807Z,3.40
2022-08-26T10:46:02.313Z,3.70
2022-08-26T10:49:01.377Z,3.05
2022-08-26T10:51:39.386Z,3.50
2022-08-26T10:54:18.833Z,3.35
2022-08-26T10:56:53.582Z,3.40
2022-08-26T10:59:48.914Z,3.03
2022-08-26T11:02:37.251Z,3.22
2022-08-26T11:05:18.049Z,3.00
2022-08-26T11:07:55.552Z,3.03
2022-08-26T11:10:26.147Z,2.90
2022-08-26T11:13:05.131Z,2.78
2022-08-26T11:15:34.399Z,2.97
2022-08-26T11:18:08.427Z,2.72
2022-08-26T11:20:47.247Z,2.88
2022-08-26T11:23:28.037Z,3.08
2022-08-26T11:26:00.227Z,2.90
2022-08-26T11:28:48.631Z,2.83
2022-08-26T11:31:27.065Z,2.80
2022-08-26T11:34:04.463Z,2.70
2022-08-26T11:36:49.994Z,3.00
2022-08-26T11:39:36.713Z,3.15
2022-08-26T11:42:32.821Z,2.92
2022-08-26T11:45:15.975Z,3.00
2022-08-26T11:47:45.668Z,2.92
2022-08-26T11:50:28.696Z,2.90
2022-08-26T11:53:06.332Z,2.60
2022-08-26T11:55:43.311Z,3.00
2022-08-26T11:58:14.521Z,2.70
2022-08-26T12:01:09.782Z,2.53
2022-08-26T12:03:53.161Z,3.05
2022-08-26T12:06:36.392Z,2.65
2022-08-26T12:09:36.682Z,2.53
2022-08-26T12:12:12.152Z,2.42
2022-08-26T12:14:41.739Z,2.50
2022-08-26T12:17:22.488Z,3.22
2022-08-26T12:19:51.809Z,2.90
2022-08-26T12:22:25.294Z,3.30
2022-08-26T12:25:06.195Z,3.00
2022-08-26T12:27:42.353Z,2.42
2022-08-26T12:30:12.384Z,2.72
2022-08-26T12:32:52.866Z,2.58
2022-08-26T12:35:29.674Z,2.50
2022-08-26T12:37:59.522Z,2.88
2022-08-26T12:40:32.060Z,2.45
2022-08-26T12:43:03.485Z,2.58
2022-08-26T12:45:44.980Z,2.70
2022-08-26T12:48:27.418Z,2.30
2022-08-26T12:50:57.515Z,2.10
2022-08-26T12:53:32.603Z,2.10
2022-08-26T12:56:05.485Z,2.25
2022-08-26T12:58:41.410Z,2.45
2022-08-26T13:01:10.623Z,2.20
2022-08-26T13:03:45.740Z,2.42
2022-08-26T13:06:30.336Z,2.67
2022-08-26T13:09:06.933Z,2.70
2022-08-26T13:14:15.529Z,2.63
2022-08-26T13:16:53.893Z,2.85
2022-08-26T13:19:26.350Z,2.72
2022-08-26T13:21:58.450Z,2.42
2022-08-26T13:24:32.676Z,2.50
2022-08-26T13:27:02.538Z,2.50
2022-08-26T13:29:31.659Z,2.10
2022-08-26T13:32:01.508Z,2.30
2022-08-26T13:34:31.400Z,2.10
2022-08-26T13:37:00.529Z,2.30
2022-08-26T13:39:29.915Z,2.47
2022-08-26T13:41:59.212Z,2.45
2022-08-26T13:44:28.537Z,2.53
2022-08-26T13:46:57.998Z,2.53
2022-08-26T13:49:27.115Z,2.90
2022-08-26T13:51:56.112Z,2.47
2022-08-26T13:54:25.231Z,2.25
2022-08-26T13:56:54.460Z,1.80
2022-08-26T13:59:23.674Z,2.05
2022-08-26T14:01:52.811Z,2.33
2022-08-26T14:04:22.479Z,2.20
2022-08-26T14:06:56.859Z,1.73
2022-08-26T14:09:25.886Z,2.00
2022-08-26T14:11:55.310Z,2.13
2022-08-26T14:14:24.611Z,2.40
2022-08-26T14:17:00.077Z,2.00
2022-08-26T14:19:31.394Z,1.90
2022-08-26T14:22:01.689Z,2.20
2022-08-26T14:24:31.169Z,1.95
2022-08-26T14:27:00.336Z,1.80
2022-08-26T14:29:29.558Z,2.35
2022-08-26T14:32:03.372Z,2.33
2022-08-26T14:34:32.522Z,2.05
2022-08-26T14:37:07.823Z,2.03
2022-08-26T14:42:08.145Z,2.70
2022-08-26T14:44:38.137Z,3.38
2022-08-26T14:47:08.076Z,3.42
2022-08-26T14:49:37.536Z,4.00
2022-08-26T14:52:06.580Z,3.72
2022-08-26T14:54:35.586Z,4.13
2022-08-26T14:57:08.765Z,3.90
2022-08-26T14:59:50.042Z,3.97
2022-08-26T15:02:22.254Z,3.67
2022-08-26T15:05:03.379Z,4.10
2022-08-26T15:07:33.222Z,3.63
2022-08-26T15:10:02.399Z,2.88
2022-08-26T15:12:32.231Z,3.40
2022-08-26T15:15:01.449Z,3.47
2022-08-26T15:17:32.096Z,3.20
2022-08-26T15:20:02.033Z,3.55
2022-08-26T15:22:31.276Z,3.03
2022-08-26T15:25:00.380Z,3.30
2022-08-26T15:27:30.210Z,3.35
2022-08-26T15:29:59.291Z,3.05
2022-08-26T15:32:28.408Z,3.10
2022-08-26T15:34:57.623Z,3.13
2022-08-26T15:37:26.708Z,3.00
2022-08-26T15:39:57.597Z,3.03
2022-08-26T15:42:26.831Z,3.30
2022-08-26T15:44:56.616Z,2.38
2022-08-26T15:47:25.926Z,2.95
2022-08-26T15:49:57.619Z,2.50
2022-08-26T15:52:26.852Z,2.85
2022-08-26T15:54:56.209Z,2.78
2022-08-26T15:57:25.366Z,3.33
2022-08-26T15:59:55.971Z,2.67
2022-08-26T16:02:26.474Z,2.15
2022-08-26T16:04:58.358Z,2.08
2022-08-26T16:07:33.227Z,2.45
2022-08-26T16:10:03.252Z,1.85
2022-08-26T16:12:32.509Z,1.67
2022-08-26T16:15:01.946Z,1.73
2022-08-26T16:17:31.007Z,1.73
2022-08-26T16:20:00.159Z,1.60
2022-08-26T16:22:29.324Z,1.38
2022-08-26T16:25:03.414Z,1.65
2022-08-26T16:27:33.312Z,1.70
2022-08-26T16:30:03.023Z,1.60
2022-08-26T16:32:32.337Z,1.80
2022-08-26T16:35:01.536Z,1.02
2022-08-26T16:37:31.284Z,1.08
2022-08-26T16:40:01.138Z,1.08
2022-08-26T16:42:31.805Z,1.23
2022-08-26T16:45:01.148Z,1.25
2022-08-26T16:47:34.038Z,1.02
2022-08-26T16:50:05.366Z,1.60
2022-08-26T16:52:34.960Z,1.48
2022-08-26T16:55:09.050Z,1.20
2022-08-26T16:57:40.315Z,1.08
2022-08-26T17:00:14.187Z,1.20
2022-08-26T17:02:43.390Z,0.98
2022-08-26T17:05:12.473Z,1.00
2022-08-26T17:07:41.893Z,1.00
2022-08-26T17:10:11.672Z,0.80
2022-08-26T17:12:41.154Z,0.63
2022-08-26T17:15:13.239Z,0.60
2022-08-26T17:17:42.666Z,0.82
2022-08-26T17:20:15.009Z,0.60
2022-08-26T17:22:48.395Z,0.80
2022-08-26T17:25:24.788Z,0.60
2022-08-26T17:30:24.553Z,0.57
2022-08-26T17:32:53.757Z,0.50
2022-08-26T17:35:23.337Z,0.60
2022-08-26T17:37:52.900Z,0.47
2022-08-26T17:40:24.896Z,0.65
2022-08-26T17:42:54.342Z,0.57
2022-08-26T17:45:24.093Z,0.70
2022-08-26T17:47:55.296Z,0.63
2022-08-26T17:50:24.945Z,0.60
2022-08-26T17:52:54.091Z,0.60
2022-08-26T17:55:23.324Z,0.80
2022-08-26T17:57:53.449Z,0.50
2022-08-26T18:00:28.069Z,0.50
2022-08-26T18:02:57.462Z,0.50
2022-08-26T18:05:26.735Z,0.52
2022-08-26T18:07:55.894Z,0.40
2022-08-26T18:10:26.909Z,0.50
2022-08-26T18:12:56.155Z,1.13
2022-08-26T18:15:25.252Z,0.40
2022-08-26T18:17:54.885Z,0.40
2022-08-26T18:20:23.970Z,0.82
2022-08-26T18:22:53.160Z,0.60
2022-08-26T18:25:22.320Z,0.40
2022-08-26T18:27:51.463Z,0.50
2022-08-26T18:30:22.618Z,0.40
2022-08-26T18:32:52.653Z,0.40
2022-08-26T18:35:22.402Z,0.43
2022-08-26T18:37:51.500Z,0.40
2022-08-26T18:40:21.510Z,0.50
2022-08-26T18:42:54.206Z,0.40
2022-08-26T18:45:23.773Z,0.40
2022-08-26T18:47:53.190Z,0.47
2022-08-26T18:50:22.350Z,0.40
2022-08-26T18:52:51.385Z,0.65
2022-08-26T18:55:20.639Z,0.30
2022-08-26T18:57:50.259Z,0.38
2022-08-26T19:00:19.476Z,0.52
2022-08-26T19:02:51.887Z,0.50
2022-08-26T19:05:21.898Z,0.57
2022-08-26T19:07:50.944Z,0.40
2022-08-26T19:10:20.000Z,0.50
2022-08-26T19:12:52.136Z,0.43
2022-08-26T19:15:21.327Z,0.40
2022-08-26T19:17:50.404Z,0.30
2022-08-26T19:20:19.857Z,0.40
2022-08-26T19:22:48.872Z,0.40
2022-08-26T19:25:18.352Z,0.47
2022-08-26T19:27:47.414Z,0.43
2022-08-26T19:30:16.875Z,0.50
2022-08-26T19:32:46.081Z,0.50
2022-08-26T19:35:15.805Z,0.40
2022-08-26T19:37:44.832Z,0.30
2022-08-26T19:40:14.234Z,0.50
2022-08-26T19:42:43.279Z,0.30
2022-08-26T19:45:24.653Z,0.50
2022-08-26T19:47:54.789Z,0.50
2022-08-26T19:50:26.171Z,0.40
2022-08-26T19:52:55.644Z,0.30
2022-08-26T19:55:25.197Z,0.43
2022-08-26T19:57:54.620Z,0.40
2022-08-26T20:00:28.607Z,0.40
2022-08-26T20:02:58.058Z,0.57
2022-08-26T20:05:28.725Z,0.40
2022-08-26T20:08:05.601Z,0.65
2022-08-26T20:10:37.754Z,0.50
2022-08-26T20:13:08.740Z,0.50
2022-08-26T20:15:37.878Z,0.52
2022-08-26T20:18:27.130Z,1.17
2022-08-26T20:21:14.515Z,0.50
2022-08-26T20:23:44.542Z,0.88
2022-08-26T20:26:14.159Z,0.60
2022-08-26T20:28:43.290Z,0.50
2022-08-26T20:31:12.415Z,0.50
2022-08-26T20:33:46.287Z,0.50
2022-08-26T20:36:16.732Z,0.75
2022-08-26T20:38:46.917Z,0.50
2022-08-26T20:41:17.006Z,0.50
2022-08-26T20:43:47.132Z,0.50
2022-08-26T20:46:20.304Z,0.50
2022-08-26T20:48:52.178Z,0.50
2022-08-26T20:51:22.146Z,0.50
2022-08-26T20:53:52.126Z,0.40
2022-08-26T20:56:25.097Z,0.50
2022-08-26T20:58:56.558Z,0.50
2022-08-26T21:04:20.521Z,0.50
2022-08-26T21:06:52.801Z,0.68
2022-08-26T21:09:26.747Z,0.70
2022-08-26T21:11:56.143Z,0.73
2022-08-26T21:14:26.174Z,0.50
2022-08-26T21:16:55.524Z,0.60
2022-08-26T21:19:24.633Z,0.70
2022-08-26T21:21:53.728Z,0.57
2022-08-26T21:24:22.907Z,0.60
2022-08-26T21:26:52.122Z,1.13
2022-08-26T21:29:22.878Z,0.60
2022-08-26T21:31:52.033Z,0.70
2022-08-26T21:34:21.982Z,0.70
2022-08-26T21:36:51.100Z,0.40
2022-08-26T21:39:20.555Z,0.93
2022-08-26T21:41:49.806Z,0.57
2022-08-26T21:44:19.943Z,0.50
2022-08-26T21:46:50.726Z,0.60
2022-08-26T21:49:20.448Z,0.70
2022-08-26T21:51:49.984Z,0.70
2022-08-26T21:54:19.151Z,0.60
2022-08-26T21:56:48.889Z,0.57
2022-08-26T21:59:20.041Z,0.57
2022-08-26T22:01:49.267Z,0.60
2022-08-26T22:04:19.493Z,0.47
2022-08-26T22:06:50.972Z,0.70
2022-08-26T22:09:23.915Z,0.70
2022-08-26T22:11:53.926Z,0.70
2022-08-26T22:14:27.387Z,0.60
2022-08-26T22:17:00.809Z,0.70
2022-08-26T22:19:32.320Z,0.75
2022-08-26T22:22:04.589Z,0.40
2022-08-26T22:24:33.787Z,0.52
2022-08-26T22:27:02.785Z,0.50
2022-08-26T22:29:34.073Z,0.60
2022-08-26T22:32:03.511Z,0.50
2022-08-26T22:34:32.613Z,0.40
2022-08-26T22:37:03.337Z,0.50
2022-08-26T22:39:32.549Z,0.50
2022-08-26T22:42:01.762Z,0.60
2022-08-26T22:44:32.112Z,0.40
2022-08-26T22:47:02.041Z,0.60
2022-08-26T22:49:31.840Z,0.50
2022-08-26T22:52:00.887Z,0.60
2022-08-26T22:54:29.949Z,0.50
2022-08-26T22:56:59.173Z,0.75
2022-08-26T22:59:28.525Z,0.63
2022-08-26T23:01:58.153Z,0.40
2022-08-26T23:04:30.515Z,0.60
2022-08-26T23:06:59.819Z,0.57
2022-08-26T23:09:33.449Z,0.70
2022-08-26T23:12:02.565Z,0.55
2022-08-26T23:14:33.640Z,0.60
2022-08-26T23:17:03.960Z,0.85
2022-08-26T23:19:33.124Z,0.70
2022-08-26T23:22:02.930Z,0.63
2022-08-26T23:24:32.123Z,0.70
2022-08-26T23:27:01.759Z,0.77
2022-08-26T23:29:30.935Z,0.98
2022-08-26T23:32:00.230Z,0.75
2022-08-26T23:34:47.676Z,0.80
2022-08-26T23:37:17.298Z,0.80
2022-08-26T23:39:46.858Z,0.73
2022-08-26T23:42:15.990Z,0.70
2022-08-26T23:44:45.161Z,0.65
2022-08-26T23:47:15.203Z,0.82
2022-08-26T23:49:44.607Z,0.88
2022-08-26T23:52:32.039Z,0.77
2022-08-26T23:55:01.202Z,0.70
2022-08-26T23:57:30.300Z,0.65
